sensor_id;sensor_type;location;lat;lon;timestamp;P1;durP1;ratioP1;P2;durP2;ratioP2
5805;SDS011;2929;50.810;8.342;2022-12-16T00:01:02;17.10;;;8.47;;
5805;SDS011;2929;50.810;8.342;2022-12-16T00:03:30;15.30;;;8.33;;
5805;SDS011;2929;50.810;8.342;2022-12-16T00:05:57;25.70;;;7.93;;
5805;SDS011;2929;50.810;8.342;2022-12-16T00:08:25;16.83;;;8.07;;
5805;SDS011;2929;50.810;8.342;2022-12-16T00:10:57;20.33;;;6.90;;
5805;SDS011;2929;50.810;8.342;2022-12-16T00:13:24;16.40;;;8.80;;
5805;SDS011;2929;50.810;8.342;2022-12-16T00:15:52;17.67;;;6.97;;
5805;SDS011;2929;50.810;8.342;2022-12-16T00:18:19;14.93;;;6.47;;
5805;SDS011;2929;50.810;8.342;2022-12-16T00:20:46;24.67;;;10.40;;
5805;SDS011;2929;50.810;8.342;2022-12-16T00:23:14;27.57;;;11.27;;
5805;SDS011;2929;50.810;8.342;2022-12-16T00:25:42;24.63;;;9.00;;
5805;SDS011;2929;50.810;8.342;2022-12-16T00:28:11;25.40;;;10.03;;
5805;SDS011;2929;50.810;8.342;2022-12-16T00:30:40;25.90;;;9.07;;
5805;SDS011;2929;50.810;8.342;2022-12-16T00:33:07;16.03;;;6.67;;
5805;SDS011;2929;50.810;8.342;2022-12-16T00:35:35;19.10;;;6.70;;
5805;SDS011;2929;50.810;8.342;2022-12-16T00:38:02;22.33;;;9.07;;
5805;SDS011;2929;50.810;8.342;2022-12-16T00:40:29;19.23;;;8.23;;
5805;SDS011;2929;50.810;8.342;2022-12-16T00:42:56;17.53;;;7.33;;
5805;SDS011;2929;50.810;8.342;2022-12-16T00:45:24;16.80;;;6.90;;
5805;SDS011;2929;50.810;8.342;2022-12-16T00:47:51;26.30;;;8.60;;
5805;SDS011;2929;50.810;8.342;2022-12-16T00:50:19;20.67;;;7.70;;
5805;SDS011;2929;50.810;8.342;2022-12-16T00:52:46;18.70;;;8.23;;
5805;SDS011;2929;50.810;8.342;2022-12-16T00:55:13;23.17;;;6.43;;
5805;SDS011;2929;50.810;8.342;2022-12-16T00:57:41;16.20;;;5.70;;
5805;SDS011;2929;50.810;8.342;2022-12-16T01:00:08;23.50;;;7.10;;
5805;SDS011;2929;50.810;8.342;2022-12-16T01:02:40;18.97;;;7.80;;
5805;SDS011;2929;50.810;8.342;2022-12-16T01:05:08;19.03;;;8.03;;
5805;SDS011;2929;50.810;8.342;2022-12-16T01:07:36;19.87;;;6.87;;
5805;SDS011;2929;50.810;8.342;2022-12-16T01:10:04;30.27;;;9.97;;
5805;SDS011;2929;50.810;8.342;2022-12-16T01:12:33;20.40;;;8.77;;
5805;SDS011;2929;50.810;8.342;2022-12-16T01:15:01;12.70;;;6.00;;
5805;SDS011;2929;50.810;8.342;2022-12-16T01:17:29;14.43;;;5.63;;
5805;SDS011;2929;50.810;8.342;2022-12-16T01:19:58;11.40;;;5.03;;
5805;SDS011;2929;50.810;8.342;2022-12-16T01:22:28;15.20;;;6.70;;
5805;SDS011;2929;50.810;8.342;2022-12-16T01:24:56;15.17;;;6.23;;
5805;SDS011;2929;50.810;8.342;2022-12-16T01:27:23;14.93;;;5.17;;
5805;SDS011;2929;50.810;8.342;2022-12-16T01:29:50;9.83;;;4.93;;
5805;SDS011;2929;50.810;8.342;2022-12-16T01:32:17;10.60;;;5.00;;
5805;SDS011;2929;50.810;8.342;2022-12-16T01:34:47;12.90;;;4.77;;
5805;SDS011;2929;50.810;8.342;2022-12-16T01:37:16;9.80;;;4.23;;
5805;SDS011;2929;50.810;8.342;2022-12-16T01:39:44;18.17;;;3.80;;
5805;SDS011;2929;50.810;8.342;2022-12-16T01:42:12;16.17;;;4.80;;
5805;SDS011;2929;50.810;8.342;2022-12-16T01:44:41;12.80;;;4.90;;
5805;SDS011;2929;50.810;8.342;2022-12-16T01:47:11;18.97;;;5.43;;
5805;SDS011;2929;50.810;8.342;2022-12-16T01:49:41;10.60;;;4.40;;
5805;SDS011;2929;50.810;8.342;2022-12-16T01:52:14;13.70;;;3.97;;
5805;SDS011;2929;50.810;8.342;2022-12-16T01:54:46;10.53;;;4.87;;
5805;SDS011;2929;50.810;8.342;2022-12-16T01:57:18;17.30;;;5.10;;
5805;SDS011;2929;50.810;8.342;2022-12-16T01:59:50;10.27;;;3.90;;
5805;SDS011;2929;50.810;8.342;2022-12-16T02:02:19;13.93;;;4.43;;
5805;SDS011;2929;50.810;8.342;2022-12-16T02:04:48;11.93;;;4.30;;
5805;SDS011;2929;50.810;8.342;2022-12-16T02:07:30;8.20;;;3.77;;
5805;SDS011;2929;50.810;8.342;2022-12-16T02:09:57;14.03;;;4.77;;
5805;SDS011;2929;50.810;8.342;2022-12-16T02:12:26;17.57;;;4.67;;
5805;SDS011;2929;50.810;8.342;2022-12-16T02:15:06;11.90;;;4.67;;
5805;SDS011;2929;50.810;8.342;2022-12-16T02:17:46;12.30;;;4.40;;
5805;SDS011;2929;50.810;8.342;2022-12-16T02:20:30;7.33;;;4.13;;
5805;SDS011;2929;50.810;8.342;2022-12-16T02:32:34;6.63;;;3.73;;
5805;SDS011;2929;50.810;8.342;2022-12-16T02:35:14;5.13;;;3.03;;
5805;SDS011;2929;50.810;8.342;2022-12-16T02:37:49;8.33;;;3.10;;
5805;SDS011;2929;50.810;8.342;2022-12-16T02:40:22;13.67;;;3.77;;
5805;SDS011;2929;50.810;8.342;2022-12-16T02:42:54;5.70;;;3.63;;
5805;SDS011;2929;50.810;8.342;2022-12-16T02:45:29;7.23;;;3.43;;
5805;SDS011;2929;50.810;8.342;2022-12-16T02:47:58;5.03;;;3.10;;
5805;SDS011;2929;50.810;8.342;2022-12-16T02:50:27;7.57;;;3.70;;
5805;SDS011;2929;50.810;8.342;2022-12-16T02:52:58;20.50;;;3.00;;
5805;SDS011;2929;50.810;8.342;2022-12-16T02:55:28;6.77;;;2.83;;
5805;SDS011;2929;50.810;8.342;2022-12-16T02:58:09;4.43;;;2.97;;
5805;SDS011;2929;50.810;8.342;2022-12-16T03:00:46;13.93;;;2.63;;
5805;SDS011;2929;50.810;8.342;2022-12-16T03:03:22;8.47;;;3.90;;
5805;SDS011;2929;50.810;8.342;2022-12-16T03:05:51;10.80;;;4.67;;
5805;SDS011;2929;50.810;8.342;2022-12-16T03:08:23;11.60;;;4.03;;
5805;SDS011;2929;50.810;8.342;2022-12-16T03:10:54;10.50;;;3.20;;
5805;SDS011;2929;50.810;8.342;2022-12-16T03:13:23;11.50;;;4.93;;
5805;SDS011;2929;50.810;8.342;2022-12-16T03:15:52;11.73;;;4.17;;
5805;SDS011;2929;50.810;8.342;2022-12-16T03:19:02;12.60;;;6.10;;
5805;SDS011;2929;50.810;8.342;2022-12-16T03:21:49;6.23;;;3.70;;
5805;SDS011;2929;50.810;8.342;2022-12-16T03:24:21;9.77;;;4.80;;
5805;SDS011;2929;50.810;8.342;2022-12-16T03:26:50;8.47;;;4.80;;
5805;SDS011;2929;50.810;8.342;2022-12-16T03:29:23;9.50;;;4.47;;
5805;SDS011;2929;50.810;8.342;2022-12-16T03:31:57;9.73;;;3.53;;
5805;SDS011;2929;50.810;8.342;2022-12-16T03:34:30;7.73;;;4.40;;
5805;SDS011;2929;50.810;8.342;2022-12-16T03:37:01;7.77;;;4.20;;
5805;SDS011;2929;50.810;8.342;2022-12-16T03:39:31;10.40;;;4.90;;
5805;SDS011;2929;50.810;8.342;2022-12-16T03:42:00;6.97;;;4.13;;
5805;SDS011;2929;50.810;8.342;2022-12-16T03:44:28;7.17;;;3.43;;
5805;SDS011;2929;50.810;8.342;2022-12-16T03:46:56;8.00;;;3.13;;
5805;SDS011;2929;50.810;8.342;2022-12-16T03:49:24;10.13;;;3.07;;
5805;SDS011;2929;50.810;8.342;2022-12-16T03:51:52;5.90;;;2.57;;
5805;SDS011;2929;50.810;8.342;2022-12-16T03:54:20;7.67;;;2.50;;
5805;SDS011;2929;50.810;8.342;2022-12-16T03:56:48;6.10;;;3.10;;
5805;SDS011;2929;50.810;8.342;2022-12-16T03:59:15;4.40;;;2.50;;
5805;SDS011;2929;50.810;8.342;2022-12-16T04:01:42;9.53;;;3.90;;
5805;SDS011;2929;50.810;8.342;2022-12-16T04:04:09;5.43;;;2.90;;
5805;SDS011;2929;50.810;8.342;2022-12-16T04:06:37;14.70;;;4.87;;
5805;SDS011;2929;50.810;8.342;2022-12-16T04:09:05;25.00;;;8.60;;
5805;SDS011;2929;50.810;8.342;2022-12-16T04:11:32;28.50;;;9.37;;
5805;SDS011;2929;50.810;8.342;2022-12-16T04:14:17;29.37;;;9.30;;
5805;SDS011;2929;50.810;8.342;2022-12-16T04:19:55;33.90;;;10.40;;
5805;SDS011;2929;50.810;8.342;2022-12-16T04:22:40;30.30;;;10.60;;
5805;SDS011;2929;50.810;8.342;2022-12-16T04:25:29;66.00;;;21.03;;
5805;SDS011;2929;50.810;8.342;2022-12-16T04:28:00;42.17;;;15.70;;
5805;SDS011;2929;50.810;8.342;2022-12-16T04:30:27;29.90;;;11.07;;
5805;SDS011;2929;50.810;8.342;2022-12-16T04:32:59;21.43;;;8.30;;
5805;SDS011;2929;50.810;8.342;2022-12-16T04:35:45;19.57;;;8.23;;
5805;SDS011;2929;50.810;8.342;2022-12-16T04:38:30;14.40;;;6.30;;
5805;SDS011;2929;50.810;8.342;2022-12-16T04:41:16;16.50;;;6.17;;
5805;SDS011;2929;50.810;8.342;2022-12-16T04:44:00;17.13;;;7.13;;
5805;SDS011;2929;50.810;8.342;2022-12-16T04:46:45;5.43;;;4.03;;
5805;SDS011;2929;50.810;8.342;2022-12-16T04:49:30;8.13;;;4.10;;
5805;SDS011;2929;50.810;8.342;2022-12-16T04:52:15;9.70;;;4.60;;
5805;SDS011;2929;50.810;8.342;2022-12-16T04:54:59;7.27;;;4.33;;
5805;SDS011;2929;50.810;8.342;2022-12-16T04:57:47;7.67;;;3.53;;
5805;SDS011;2929;50.810;8.342;2022-12-16T05:00:32;4.40;;;2.77;;
5805;SDS011;2929;50.810;8.342;2022-12-16T05:03:16;6.77;;;3.20;;
5805;SDS011;2929;50.810;8.342;2022-12-16T05:06:01;5.83;;;2.70;;
5805;SDS011;2929;50.810;8.342;2022-12-16T05:08:45;7.20;;;3.33;;
5805;SDS011;2929;50.810;8.342;2022-12-16T05:11:29;6.53;;;3.27;;
5805;SDS011;2929;50.810;8.342;2022-12-16T05:14:15;8.13;;;3.30;;
5805;SDS011;2929;50.810;8.342;2022-12-16T05:17:00;10.30;;;5.20;;
5805;SDS011;2929;50.810;8.342;2022-12-16T05:19:44;12.67;;;7.80;;
5805;SDS011;2929;50.810;8.342;2022-12-16T05:22:28;12.53;;;7.37;;
5805;SDS011;2929;50.810;8.342;2022-12-16T05:25:12;14.60;;;9.67;;
5805;SDS011;2929;50.810;8.342;2022-12-16T05:27:57;11.73;;;6.07;;
5805;SDS011;2929;50.810;8.342;2022-12-16T05:30:43;8.30;;;3.73;;
5805;SDS011;2929;50.810;8.342;2022-12-16T05:33:28;9.20;;;4.30;;
5805;SDS011;2929;50.810;8.342;2022-12-16T05:36:12;9.07;;;4.40;;
5805;SDS011;2929;50.810;8.342;2022-12-16T05:38:56;18.87;;;5.67;;
5805;SDS011;2929;50.810;8.342;2022-12-16T05:41:41;13.47;;;6.13;;
5805;SDS011;2929;50.810;8.342;2022-12-16T05:44:26;16.47;;;5.83;;
5805;SDS011;2929;50.810;8.342;2022-12-16T05:47:12;12.17;;;5.70;;
5805;SDS011;2929;50.810;8.342;2022-12-16T05:49:56;13.87;;;5.03;;
5805;SDS011;2929;50.810;8.342;2022-12-16T05:52:46;14.80;;;4.13;;
5805;SDS011;2929;50.810;8.342;2022-12-16T05:55:32;8.73;;;4.03;;
5805;SDS011;2929;50.810;8.342;2022-12-16T05:58:16;5.40;;;3.73;;
5805;SDS011;2929;50.810;8.342;2022-12-16T06:01:00;7.23;;;3.90;;
5805;SDS011;2929;50.810;8.342;2022-12-16T06:03:46;7.57;;;4.00;;
5805;SDS011;2929;50.810;8.342;2022-12-16T06:06:30;10.17;;;4.50;;
5805;SDS011;2929;50.810;8.342;2022-12-16T06:09:15;12.23;;;4.10;;
5805;SDS011;2929;50.810;8.342;2022-12-16T06:11:59;11.60;;;4.20;;
5805;SDS011;2929;50.810;8.342;2022-12-16T06:14:44;8.20;;;3.53;;
5805;SDS011;2929;50.810;8.342;2022-12-16T06:17:28;18.17;;;6.80;;
5805;SDS011;2929;50.810;8.342;2022-12-16T06:20:14;12.17;;;6.40;;
5805;SDS011;2929;50.810;8.342;2022-12-16T06:22:59;25.17;;;11.37;;
5805;SDS011;2929;50.810;8.342;2022-12-16T06:25:40;42.70;;;20.57;;
5805;SDS011;2929;50.810;8.342;2022-12-16T06:28:25;12.93;;;8.20;;
5805;SDS011;2929;50.810;8.342;2022-12-16T06:31:09;14.17;;;6.67;;
5805;SDS011;2929;50.810;8.342;2022-12-16T06:33:54;20.67;;;8.97;;
5805;SDS011;2929;50.810;8.342;2022-12-16T06:36:40;15.00;;;5.93;;
5805;SDS011;2929;50.810;8.342;2022-12-16T06:39:24;8.07;;;3.57;;
5805;SDS011;2929;50.810;8.342;2022-12-16T06:42:09;16.00;;;6.60;;
5805;SDS011;2929;50.810;8.342;2022-12-16T06:44:53;20.43;;;6.43;;
5805;SDS011;2929;50.810;8.342;2022-12-16T06:47:37;18.13;;;8.33;;
5805;SDS011;2929;50.810;8.342;2022-12-16T06:50:22;26.70;;;11.63;;
5805;SDS011;2929;50.810;8.342;2022-12-16T06:53:08;17.70;;;7.80;;
5805;SDS011;2929;50.810;8.342;2022-12-16T06:55:52;14.30;;;6.03;;
5805;SDS011;2929;50.810;8.342;2022-12-16T06:58:37;15.70;;;6.03;;
5805;SDS011;2929;50.810;8.342;2022-12-16T07:01:21;13.37;;;6.10;;
5805;SDS011;2929;50.810;8.342;2022-12-16T07:04:07;17.60;;;8.50;;
5805;SDS011;2929;50.810;8.342;2022-12-16T07:06:51;23.97;;;9.10;;
5805;SDS011;2929;50.810;8.342;2022-12-16T07:09:37;13.00;;;7.90;;
5805;SDS011;2929;50.810;8.342;2022-12-16T07:20:07;12.87;;;7.17;;
5805;SDS011;2929;50.810;8.342;2022-12-16T07:22:52;15.33;;;7.10;;
5805;SDS011;2929;50.810;8.342;2022-12-16T07:25:38;7.07;;;4.43;;
5805;SDS011;2929;50.810;8.342;2022-12-16T07:28:23;17.57;;;7.57;;
5805;SDS011;2929;50.810;8.342;2022-12-16T07:31:07;22.90;;;7.07;;
5805;SDS011;2929;50.810;8.342;2022-12-16T07:37:14;14.37;;;6.20;;
5805;SDS011;2929;50.810;8.342;2022-12-16T07:39:59;11.13;;;5.47;;
5805;SDS011;2929;50.810;8.342;2022-12-16T07:42:46;14.83;;;6.83;;
5805;SDS011;2929;50.810;8.342;2022-12-16T07:45:31;18.10;;;7.87;;
5805;SDS011;2929;50.810;8.342;2022-12-16T07:48:16;12.63;;;5.77;;
5805;SDS011;2929;50.810;8.342;2022-12-16T07:51:01;18.50;;;6.73;;
5805;SDS011;2929;50.810;8.342;2022-12-16T07:53:46;10.47;;;4.47;;
5805;SDS011;2929;50.810;8.342;2022-12-16T07:56:30;12.30;;;5.53;;
5805;SDS011;2929;50.810;8.342;2022-12-16T07:59:16;11.30;;;5.40;;
5805;SDS011;2929;50.810;8.342;2022-12-16T08:02:00;11.93;;;5.23;;
5805;SDS011;2929;50.810;8.342;2022-12-16T08:04:45;12.17;;;5.57;;
5805;SDS011;2929;50.810;8.342;2022-12-16T08:07:29;14.33;;;5.50;;
5805;SDS011;2929;50.810;8.342;2022-12-16T08:10:14;16.47;;;8.77;;
5805;SDS011;2929;50.810;8.342;2022-12-16T08:12:59;19.30;;;9.20;;
5805;SDS011;2929;50.810;8.342;2022-12-16T08:15:45;28.00;;;9.87;;
5805;SDS011;2929;50.810;8.342;2022-12-16T08:18:30;16.50;;;8.40;;
5805;SDS011;2929;50.810;8.342;2022-12-16T08:21:15;15.00;;;7.30;;
5805;SDS011;2929;50.810;8.342;2022-12-16T08:24:00;14.93;;;6.70;;
5805;SDS011;2929;50.810;8.342;2022-12-16T08:26:56;20.83;;;7.80;;
5805;SDS011;2929;50.810;8.342;2022-12-16T08:29:40;19.67;;;8.27;;
5805;SDS011;2929;50.810;8.342;2022-12-16T08:32:26;20.77;;;9.50;;
5805;SDS011;2929;50.810;8.342;2022-12-16T08:35:11;20.33;;;10.10;;
5805;SDS011;2929;50.810;8.342;2022-12-16T08:37:56;27.00;;;9.67;;
5805;SDS011;2929;50.810;8.342;2022-12-16T08:40:41;26.30;;;10.83;;
5805;SDS011;2929;50.810;8.342;2022-12-16T08:43:29;19.00;;;5.50;;
5805;SDS011;2929;50.810;8.342;2022-12-16T08:46:15;14.03;;;5.80;;
5805;SDS011;2929;50.810;8.342;2022-12-16T08:49:01;15.73;;;6.83;;
5805;SDS011;2929;50.810;8.342;2022-12-16T08:51:46;26.03;;;5.87;;
5805;SDS011;2929;50.810;8.342;2022-12-16T08:54:30;12.03;;;5.37;;
5805;SDS011;2929;50.810;8.342;2022-12-16T08:57:30;6.20;;;3.80;;
5805;SDS011;2929;50.810;8.342;2022-12-16T09:00:15;15.00;;;4.70;;
5805;SDS011;2929;50.810;8.342;2022-12-16T09:03:12;15.23;;;5.23;;
5805;SDS011;2929;50.810;8.342;2022-12-16T09:05:59;11.73;;;5.13;;
5805;SDS011;2929;50.810;8.342;2022-12-16T09:08:43;34.47;;;14.60;;
5805;SDS011;2929;50.810;8.342;2022-12-16T09:11:28;33.07;;;14.40;;
5805;SDS011;2929;50.810;8.342;2022-12-16T09:14:13;49.13;;;15.67;;
5805;SDS011;2929;50.810;8.342;2022-12-16T09:17:09;55.17;;;18.70;;
5805;SDS011;2929;50.810;8.342;2022-12-16T09:19:54;39.50;;;16.40;;
5805;SDS011;2929;50.810;8.342;2022-12-16T09:22:40;37.47;;;17.70;;
5805;SDS011;2929;50.810;8.342;2022-12-16T09:25:25;41.03;;;15.67;;
5805;SDS011;2929;50.810;8.342;2022-12-16T09:28:10;30.30;;;15.77;;
5805;SDS011;2929;50.810;8.342;2022-12-16T09:30:55;30.43;;;13.80;;
5805;SDS011;2929;50.810;8.342;2022-12-16T09:33:39;26.07;;;9.77;;
5805;SDS011;2929;50.810;8.342;2022-12-16T09:36:25;21.03;;;9.33;;
5805;SDS011;2929;50.810;8.342;2022-12-16T09:39:11;30.00;;;11.20;;
5805;SDS011;2929;50.810;8.342;2022-12-16T09:41:58;26.63;;;11.07;;
5805;SDS011;2929;50.810;8.342;2022-12-16T09:44:49;31.50;;;12.80;;
5805;SDS011;2929;50.810;8.342;2022-12-16T09:47:44;34.90;;;13.17;;
5805;SDS011;2929;50.810;8.342;2022-12-16T09:50:38;25.17;;;12.37;;
5805;SDS011;2929;50.810;8.342;2022-12-16T09:53:25;26.40;;;10.97;;
5805;SDS011;2929;50.810;8.342;2022-12-16T09:56:17;21.77;;;12.23;;
5805;SDS011;2929;50.810;8.342;2022-12-16T09:59:08;24.73;;;12.60;;
5805;SDS011;2929;50.810;8.342;2022-12-16T10:01:55;22.97;;;10.80;;
5805;SDS011;2929;50.810;8.342;2022-12-16T10:04:41;21.20;;;10.43;;
5805;SDS011;2929;50.810;8.342;2022-12-16T10:07:28;17.17;;;8.43;;
5805;SDS011;2929;50.810;8.342;2022-12-16T10:10:19;19.07;;;8.10;;
5805;SDS011;2929;50.810;8.342;2022-12-16T10:13:13;15.00;;;7.43;;
5805;SDS011;2929;50.810;8.342;2022-12-16T10:16:03;19.77;;;8.37;;
5805;SDS011;2929;50.810;8.342;2022-12-16T10:19:09;16.87;;;7.97;;
5805;SDS011;2929;50.810;8.342;2022-12-16T10:22:01;16.70;;;7.87;;
5805;SDS011;2929;50.810;8.342;2022-12-16T10:24:53;11.57;;;6.53;;
5805;SDS011;2929;50.810;8.342;2022-12-16T10:27:44;13.60;;;6.20;;
5805;SDS011;2929;50.810;8.342;2022-12-16T10:30:32;21.03;;;7.50;;
5805;SDS011;2929;50.810;8.342;2022-12-16T10:33:21;14.13;;;5.70;;
5805;SDS011;2929;50.810;8.342;2022-12-16T10:36:10;11.70;;;5.90;;
5805;SDS011;2929;50.810;8.342;2022-12-16T10:38:59;7.67;;;4.80;;
5805;SDS011;2929;50.810;8.342;2022-12-16T10:41:49;11.73;;;5.00;;
5805;SDS011;2929;50.810;8.342;2022-12-16T10:44:36;8.60;;;4.90;;
5805;SDS011;2929;50.810;8.342;2022-12-16T10:47:29;12.00;;;4.63;;
5805;SDS011;2929;50.810;8.342;2022-12-16T10:50:14;10.53;;;5.00;;
5805;SDS011;2929;50.810;8.342;2022-12-16T10:53:00;5.33;;;4.70;;
5805;SDS011;2929;50.810;8.342;2022-12-16T10:55:50;11.63;;;5.13;;
5805;SDS011;2929;50.810;8.342;2022-12-16T10:58:45;9.97;;;5.03;;
5805;SDS011;2929;50.810;8.342;2022-12-16T11:01:39;8.77;;;4.50;;
5805;SDS011;2929;50.810;8.342;2022-12-16T11:04:30;10.03;;;4.57;;
5805;SDS011;2929;50.810;8.342;2022-12-16T11:07:23;7.60;;;4.07;;
5805;SDS011;2929;50.810;8.342;2022-12-16T11:13:15;8.57;;;4.47;;
5805;SDS011;2929;50.810;8.342;2022-12-16T11:16:09;13.33;;;3.67;;
5805;SDS011;2929;50.810;8.342;2022-12-16T11:18:59;7.17;;;3.50;;
5805;SDS011;2929;50.810;8.342;2022-12-16T11:21:45;6.37;;;3.87;;
5805;SDS011;2929;50.810;8.342;2022-12-16T11:24:30;6.90;;;3.50;;
5805;SDS011;2929;50.810;8.342;2022-12-16T11:27:20;5.57;;;3.70;;
5805;SDS011;2929;50.810;8.342;2022-12-16T11:30:16;8.00;;;3.10;;
5805;SDS011;2929;50.810;8.342;2022-12-16T11:33:09;4.20;;;3.07;;
5805;SDS011;2929;50.810;8.342;2022-12-16T11:36:02;8.80;;;2.97;;
5805;SDS011;2929;50.810;8.342;2022-12-16T11:38:51;3.97;;;2.30;;
5805;SDS011;2929;50.810;8.342;2022-12-16T11:48:48;3.70;;;2.40;;
5805;SDS011;2929;50.810;8.342;2022-12-16T11:51:44;12.03;;;1.80;;
5805;SDS011;2929;50.810;8.342;2022-12-16T11:54:39;4.03;;;1.67;;
5805;SDS011;2929;50.810;8.342;2022-12-16T11:58:04;3.47;;;1.60;;
5805;SDS011;2929;50.810;8.342;2022-12-16T12:04:38;3.50;;;1.67;;
5805;SDS011;2929;50.810;8.342;2022-12-16T12:07:24;7.70;;;2.43;;
5805;SDS011;2929;50.810;8.342;2022-12-16T12:13:36;4.13;;;2.00;;
5805;SDS011;2929;50.810;8.342;2022-12-16T12:16:46;3.17;;;2.03;;
5805;SDS011;2929;50.810;8.342;2022-12-16T12:19:45;3.97;;;2.43;;
5805;SDS011;2929;50.810;8.342;2022-12-16T12:22:37;14.90;;;6.83;;
5805;SDS011;2929;50.810;8.342;2022-12-16T12:25:24;7.23;;;2.53;;
5805;SDS011;2929;50.810;8.342;2022-12-16T12:28:20;4.40;;;2.20;;
5805;SDS011;2929;50.810;8.342;2022-12-16T12:31:17;4.10;;;2.30;;
5805;SDS011;2929;50.810;8.342;2022-12-16T12:34:13;11.20;;;5.53;;
5805;SDS011;2929;50.810;8.342;2022-12-16T12:37:18;4.03;;;2.00;;
5805;SDS011;2929;50.810;8.342;2022-12-16T12:40:13;9.40;;;4.87;;
5805;SDS011;2929;50.810;8.342;2022-12-16T12:43:07;12.43;;;3.63;;
5805;SDS011;2929;50.810;8.342;2022-12-16T12:46:03;6.13;;;2.10;;
5805;SDS011;2929;50.810;8.342;2022-12-16T12:48:53;6.27;;;3.47;;
5805;SDS011;2929;50.810;8.342;2022-12-16T12:51:43;5.87;;;3.67;;
5805;SDS011;2929;50.810;8.342;2022-12-16T12:54:40;5.87;;;2.90;;
5805;SDS011;2929;50.810;8.342;2022-12-16T12:57:30;8.63;;;6.60;;
5805;SDS011;2929;50.810;8.342;2022-12-16T13:00:19;4.90;;;2.53;;
5805;SDS011;2929;50.810;8.342;2022-12-16T13:03:11;8.30;;;3.27;;
5805;SDS011;2929;50.810;8.342;2022-12-16T13:06:02;5.57;;;3.50;;
5805;SDS011;2929;50.810;8.342;2022-12-16T13:08:55;8.47;;;3.83;;
5805;SDS011;2929;50.810;8.342;2022-12-16T13:15:02;8.33;;;2.97;;
5805;SDS011;2929;50.810;8.342;2022-12-16T13:24:31;4.60;;;2.60;;
5805;SDS011;2929;50.810;8.342;2022-12-16T13:27:22;4.23;;;2.60;;
5805;SDS011;2929;50.810;8.342;2022-12-16T13:30:19;3.87;;;2.40;;
5805;SDS011;2929;50.810;8.342;2022-12-16T13:33:19;11.30;;;4.80;;
5805;SDS011;2929;50.810;8.342;2022-12-16T13:36:10;18.37;;;8.67;;
5805;SDS011;2929;50.810;8.342;2022-12-16T13:38:59;10.93;;;4.70;;
5805;SDS011;2929;50.810;8.342;2022-12-16T13:41:58;6.10;;;2.33;;
5805;SDS011;2929;50.810;8.342;2022-12-16T13:44:53;3.50;;;1.97;;
5805;SDS011;2929;50.810;8.342;2022-12-16T13:51:07;6.87;;;2.57;;
5805;SDS011;2929;50.810;8.342;2022-12-16T13:53:52;7.57;;;2.90;;
5805;SDS011;2929;50.810;8.342;2022-12-16T13:56:39;6.80;;;1.53;;
5805;SDS011;2929;50.810;8.342;2022-12-16T13:59:30;1.90;;;1.20;;
5805;SDS011;2929;50.810;8.342;2022-12-16T14:02:22;1.27;;;1.17;;
5805;SDS011;2929;50.810;8.342;2022-12-16T14:05:13;3.30;;;1.50;;
5805;SDS011;2929;50.810;8.342;2022-12-16T14:08:03;3.73;;;1.50;;
5805;SDS011;2929;50.810;8.342;2022-12-16T14:10:53;6.93;;;1.87;;
5805;SDS011;2929;50.810;8.342;2022-12-16T14:13:45;2.60;;;1.60;;
5805;SDS011;2929;50.810;8.342;2022-12-16T14:16:39;9.70;;;4.90;;
5805;SDS011;2929;50.810;8.342;2022-12-16T14:19:32;5.20;;;3.30;;
5805;SDS011;2929;50.810;8.342;2022-12-16T14:22:34;6.70;;;3.93;;
5805;SDS011;2929;50.810;8.342;2022-12-16T14:25:30;15.23;;;8.87;;
5805;SDS011;2929;50.810;8.342;2022-12-16T14:28:18;9.47;;;6.40;;
5805;SDS011;2929;50.810;8.342;2022-12-16T14:31:11;10.70;;;6.97;;
5805;SDS011;2929;50.810;8.342;2022-12-16T14:34:00;8.57;;;6.83;;
5805;SDS011;2929;50.810;8.342;2022-12-16T14:36:59;8.13;;;5.40;;
5805;SDS011;2929;50.810;8.342;2022-12-16T14:39:50;23.30;;;10.87;;
5805;SDS011;2929;50.810;8.342;2022-12-16T14:42:38;14.30;;;6.50;;
5805;SDS011;2929;50.810;8.342;2022-12-16T14:45:25;22.50;;;8.63;;
5805;SDS011;2929;50.810;8.342;2022-12-16T14:48:24;32.03;;;14.30;;
5805;SDS011;2929;50.810;8.342;2022-12-16T14:51:26;29.63;;;9.07;;
5805;SDS011;2929;50.810;8.342;2022-12-16T14:54:20;33.30;;;12.17;;
5805;SDS011;2929;50.810;8.342;2022-12-16T14:57:10;46.57;;;18.43;;
5805;SDS011;2929;50.810;8.342;2022-12-16T15:00:04;38.10;;;14.40;;
5805;SDS011;2929;50.810;8.342;2022-12-16T15:02:56;16.37;;;7.97;;
5805;SDS011;2929;50.810;8.342;2022-12-16T15:05:47;14.27;;;5.97;;
5805;SDS011;2929;50.810;8.342;2022-12-16T15:08:48;18.43;;;8.47;;
5805;SDS011;2929;50.810;8.342;2022-12-16T15:11:37;5.73;;;2.53;;
5805;SDS011;2929;50.810;8.342;2022-12-16T15:14:24;11.63;;;3.73;;
5805;SDS011;2929;50.810;8.342;2022-12-16T15:17:19;7.07;;;4.30;;
5805;SDS011;2929;50.810;8.342;2022-12-16T15:20:06;8.87;;;5.20;;
5805;SDS011;2929;50.810;8.342;2022-12-16T15:23:00;14.80;;;6.60;;
5805;SDS011;2929;50.810;8.342;2022-12-16T15:25:49;14.20;;;6.30;;
5805;SDS011;2929;50.810;8.342;2022-12-16T15:28:39;15.13;;;4.60;;
5805;SDS011;2929;50.810;8.342;2022-12-16T15:31:26;8.73;;;3.87;;
5805;SDS011;2929;50.810;8.342;2022-12-16T15:37:21;8.27;;;4.50;;
5805;SDS011;2929;50.810;8.342;2022-12-16T15:40:13;9.83;;;4.10;;
5805;SDS011;2929;50.810;8.342;2022-12-16T15:43:02;6.90;;;4.27;;
5805;SDS011;2929;50.810;8.342;2022-12-16T15:45:47;14.73;;;5.10;;
5805;SDS011;2929;50.810;8.342;2022-12-16T15:48:33;10.30;;;4.23;;
5805;SDS011;2929;50.810;8.342;2022-12-16T15:51:20;8.20;;;4.97;;
5805;SDS011;2929;50.810;8.342;2022-12-16T15:54:11;6.63;;;4.07;;
5805;SDS011;2929;50.810;8.342;2022-12-16T15:57:00;6.10;;;3.90;;
5805;SDS011;2929;50.810;8.342;2022-12-16T15:59:59;13.23;;;3.43;;
5805;SDS011;2929;50.810;8.342;2022-12-16T16:02:45;8.40;;;4.13;;
5805;SDS011;2929;50.810;8.342;2022-12-16T16:05:30;10.77;;;5.23;;
5805;SDS011;2929;50.810;8.342;2022-12-16T16:08:15;12.93;;;6.70;;
5805;SDS011;2929;50.810;8.342;2022-12-16T16:10:56;28.27;;;11.83;;
5805;SDS011;2929;50.810;8.342;2022-12-16T16:13:42;19.30;;;9.40;;
5805;SDS011;2929;50.810;8.342;2022-12-16T16:16:27;11.83;;;5.20;;
5805;SDS011;2929;50.810;8.342;2022-12-16T16:19:21;4.90;;;2.90;;
5805;SDS011;2929;50.810;8.342;2022-12-16T16:22:09;8.60;;;3.47;;
5805;SDS011;2929;50.810;8.342;2022-12-16T16:24:55;4.30;;;3.40;;
5805;SDS011;2929;50.810;8.342;2022-12-16T16:27:40;21.77;;;10.33;;
5805;SDS011;2929;50.810;8.342;2022-12-16T16:30:26;17.67;;;8.80;;
5805;SDS011;2929;50.810;8.342;2022-12-16T16:33:10;37.60;;;14.57;;
5805;SDS011;2929;50.810;8.342;2022-12-16T16:35:55;28.37;;;11.00;;
5805;SDS011;2929;50.810;8.342;2022-12-16T16:38:40;15.23;;;4.23;;
5805;SDS011;2929;50.810;8.342;2022-12-16T16:41:25;7.37;;;3.53;;
5805;SDS011;2929;50.810;8.342;2022-12-16T16:44:09;8.63;;;3.70;;
5805;SDS011;2929;50.810;8.342;2022-12-16T16:46:55;11.97;;;4.17;;
5805;SDS011;2929;50.810;8.342;2022-12-16T16:49:41;7.70;;;4.17;;
5805;SDS011;2929;50.810;8.342;2022-12-16T16:52:28;13.23;;;6.37;;
5805;SDS011;2929;50.810;8.342;2022-12-16T16:55:14;20.53;;;8.57;;
5805;SDS011;2929;50.810;8.342;2022-12-16T16:57:59;12.87;;;7.43;;
5805;SDS011;2929;50.810;8.342;2022-12-16T17:00:47;14.20;;;7.73;;
5805;SDS011;2929;50.810;8.342;2022-12-16T17:03:33;16.43;;;7.00;;
5805;SDS011;2929;50.810;8.342;2022-12-16T17:06:17;21.70;;;8.80;;
5805;SDS011;2929;50.810;8.342;2022-12-16T17:09:02;17.17;;;7.90;;
5805;SDS011;2929;50.810;8.342;2022-12-16T17:11:52;18.17;;;8.63;;
5805;SDS011;2929;50.810;8.342;2022-12-16T17:14:37;12.30;;;7.00;;
5805;SDS011;2929;50.810;8.342;2022-12-16T17:17:21;15.67;;;6.87;;
5805;SDS011;2929;50.810;8.342;2022-12-16T17:20:07;15.63;;;7.80;;
5805;SDS011;2929;50.810;8.342;2022-12-16T17:22:57;24.00;;;8.97;;
5805;SDS011;2929;50.810;8.342;2022-12-16T17:25:42;25.17;;;11.07;;
5805;SDS011;2929;50.810;8.342;2022-12-16T17:28:26;20.37;;;8.47;;
5805;SDS011;2929;50.810;8.342;2022-12-16T17:31:11;19.60;;;9.93;;
5805;SDS011;2929;50.810;8.342;2022-12-16T17:33:55;16.20;;;8.23;;
5805;SDS011;2929;50.810;8.342;2022-12-16T17:36:41;20.20;;;7.30;;
5805;SDS011;2929;50.810;8.342;2022-12-16T17:39:25;26.70;;;9.30;;
5805;SDS011;2929;50.810;8.342;2022-12-16T17:42:10;20.77;;;9.40;;